Fussa, Japan

10:42 AM JST on August 20, 2018 (GMT +0900)
ITOKYOMU2 | | Change Station

Elev 361 ft 35.74 °N, 139.40 °E | Updated 1 minute ago

Overcast
Overcast
79.2 °F
Feels Like 80 °F
N
2
Wind Variable Wind from NW
Gusts 2.0 mph

Today
High -- | Low -- °F
--% Chance of Precip.
Yesterday
High -- | Low -- °F
Precip. -- in
Pressure 30.02 in
Visibility 10.0 miles
Clouds Overcast 3100 ft
Heat Index 80 °F
Dew Point 58 °F
Humidity 48%
Rainfall 0.00 in
Snow Depth Not available.
5:05 AM 6:26 PM
Waxing Gibbous, 67% visible
METAR RJTY 200056Z AUTO 06005KT 10SM OVC031 24/17 A3002 RMK AO2 SLP164 T02420167 FZRANO $
Pressure 30.02 in
Visibility 10.0 miles
Clouds Overcast 3100 ft
Heat Index 80 °F
Dew Point 58 °F
Humidity 48%
Rainfall 0.00 in
Snow Depth Not available.
5:05 AM 6:26 PM
Waxing Gibbous, 67% visible
METAR RJTY 200056Z AUTO 06005KT 10SM OVC031 24/17 A3002 RMK AO2 SLP164 T02420167 FZRANO $

Get Severe Weather Alerts

Thanks for signing up!

Be on the lookout for a verification email in your inbox.

You'll start receiving the daily forecast at 6 AM.

×

10-Day Weather Forecast

No radar image for this location.
×

Almanac

Astronomy

Aug. 20, 2018 Rise Set
Actual Time
Civil Twilight
Nautical Twilight
Astronomical Twilight
Moon
Length of Visible Light
Length of Day
Tomorrow will be .
, % of the Moon is Illuminated

Today's Extremes

Country Highs Country Lows

Community

WunderPhotos

Category 6

Welcome to Category 6. This is the collective home for Weather Underground's featured writeups by Dr. Jeff Masters (right), Bob Henson (left), Chris Burt, and other regular contributors.

Nearby

Air Quality

  Air Quality AQ Index Pollutant
Not available.

Snow Depth

Station Depth Elevation

Earthquake Activity

City Distance Mag. Time & Date
Minimum magnitude displayed is 2.5.

Coastal Water Temperatures

Place Temperature

Stations

Nearby Weather Stations

Station Location Temp. Windchill Dew Point Humidity Wind Precip. Elev Updated Type